Time;durP1;ratioP1;P1;durP2;ratioP2;P2;SDS_P1;SDS_P2;PMS_P1;PMS_P2;Temp;Humidity;BMP_temperature;BMP_pressure;BME280_temperature;BME280_humidity;BME280_pressure;Samples;Min_cycle;Max_cycle;Signal;HPM_P1;HPM_P2
2022/10/18 00:00:53;;;;;;;37.42;23.15;;;;;;;13.69;100.00;102543.47;5034407;28;20124;-72
2022/10/18 00:03:19;;;;;;;40.65;23.48;;;;;;;13.69;100.00;102545.22;5034570;28;20026;-72
2022/10/18 00:05:46;;;;;;;37.45;23.65;;;;;;;13.68;100.00;102539.19;5034428;28;20099;-73
2022/10/18 00:08:12;;;;;;;44.20;24.00;;;;;;;13.56;100.00;102523.34;5034571;28;20052;-73
2022/10/18 00:10:37;;;;;;;43.92;25.52;;;;;;;13.72;100.00;102545.06;5032196;28;20042;-73
2022/10/18 00:13:02;;;;;;;41.55;22.38;;;;;;;13.68;100.00;102544.38;5034358;28;20112;-73
2022/10/18 00:15:27;;;;;;;40.42;23.20;;;;;;;13.66;100.00;102541.00;5034370;28;20026;-74
2022/10/18 00:17:53;;;;;;;34.80;22.30;;;;;;;13.66;100.00;102540.16;5034478;28;20041;-74
2022/10/18 00:20:18;;;;;;;31.02;21.70;;;;;;;13.66;100.00;102537.56;5034056;28;20232;-76
2022/10/18 00:22:43;;;;;;;33.90;22.33;;;;;;;13.56;100.00;102519.00;5034386;28;20067;-74
2022/10/18 00:25:09;;;;;;;36.00;21.95;;;;;;;13.65;100.00;102534.13;5034161;28;20025;-74
2022/10/18 00:27:35;;;;;;;36.33;22.13;;;;;;;13.63;100.00;102533.34;5034020;28;20079;-74
2022/10/18 00:30:00;;;;;;;37.15;21.77;;;;;;;13.63;100.00;102535.94;5034156;28;20040;-74
2022/10/18 00:32:26;;;;;;;37.83;23.38;;;;;;;13.67;100.00;102537.50;5034178;28;20034;-74
2022/10/18 00:34:52;;;;;;;37.70;22.50;;;;;;;13.61;100.00;102531.75;5033967;28;20022;-74
2022/10/18 00:37:17;;;;;;;39.65;24.55;;;;;;;13.52;100.00;102525.25;5033639;28;20048;-73
2022/10/18 00:39:43;;;;;;;37.08;22.73;;;;;;;13.63;100.00;102541.16;5033926;28;20064;-75
2022/10/18 00:42:15;;;;;;;34.88;22.50;;;;;;;13.46;100.00;102503.03;5033875;28;20028;-73
2022/10/18 00:44:41;;;;;;;40.10;24.55;;;;;;;13.64;100.00;102532.44;5034029;28;20022;-74
2022/10/18 00:47:09;;;;;;;36.42;22.58;;;;;;;13.63;100.00;102529.94;5033688;28;20159;-74
2022/10/18 00:49:38;;;;;;;38.63;21.83;;;;;;;13.54;100.00;102528.63;5033356;28;20164;-74
2022/10/18 00:52:08;;;;;;;40.33;22.92;;;;;;;13.58;100.00;102540.53;5033497;28;20159;-73
2022/10/18 00:54:37;;;;;;;34.22;21.63;;;;;;;13.53;100.00;102528.69;5033628;28;20120;-73
2022/10/18 00:57:04;;;;;;;36.75;22.75;;;;;;;13.57;100.00;102538.88;5033241;28;20033;-73
2022/10/18 00:59:29;;;;;;;32.67;22.63;;;;;;;13.57;100.00;102544.06;5033665;28;20017;-74
2022/10/18 01:01:55;;;;;;;35.47;21.27;;;;;;;13.53;100.00;102552.88;5033602;28;20031;-73
2022/10/18 01:04:21;;;;;;;31.80;22.00;;;;;;;13.54;100.00;102553.72;5033624;28;20104;-73
2022/10/18 01:06:56;;;;;;;35.22;22.05;;;;;;;13.57;100.00;102559.63;5033197;28;20029;-74
2022/10/18 01:09:35;;;;;;;41.78;22.55;;;;;;;13.56;100.00;102564.88;5033581;28;20484;-73
2022/10/18 01:12:07;;;;;;;37.35;23.15;;;;;;;13.50;100.00;102553.03;5033090;28;20046;-74
2022/10/18 01:14:48;;;;;;;41.47;23.15;;;;;;;13.56;100.00;102555.31;5033841;28;20408;-74
2022/10/18 01:17:21;;;;;;;39.28;22.55;;;;;;;13.54;100.00;102557.16;5033375;28;20144;-74
2022/10/18 01:20:08;;;;;;;36.08;22.48;;;;;;;13.56;100.00;102555.31;5033098;28;20037;-74
2022/10/18 01:22:41;;;;;;;39.83;23.58;;;;;;;13.51;100.00;102551.28;5033217;28;20110;-74
2022/10/18 01:25:34;;;;;;;36.15;23.13;;;;;;;13.53;100.00;102554.66;5033663;28;20071;-79
2022/10/18 01:28:23;;;;;;;40.97;22.70;;;;;;;13.56;100.00;102554.50;5033119;28;20029;-79
2022/10/18 01:30:54;;;;;;;40.25;23.33;;;;;;;13.51;100.00;102553.88;5033080;28;20029;-79
2022/10/18 01:33:27;;;;;;;41.28;24.33;;;;;;;13.40;100.00;102537.06;5033204;28;20536;-79
2022/10/18 01:36:05;;;;;;;40.38;23.65;;;;;;;13.53;100.00;102555.47;5032933;28;20037;-79
2022/10/18 01:38:32;;;;;;;44.25;24.10;;;;;;;13.52;100.00;102552.97;5033083;28;20021;-79
2022/10/18 01:41:01;;;;;;;38.67;23.20;;;;;;;13.51;100.00;102557.31;5033000;28;20033;-79
2022/10/18 01:43:28;;;;;;;32.20;22.35;;;;;;;13.29;100.00;102526.38;5032889;28;20029;-76
2022/10/18 01:45:55;;;;;;;31.83;20.83;;;;;;;13.48;100.00;102562.66;5033020;28;20025;-78
2022/10/18 01:48:21;;;;;;;34.35;20.92;;;;;;;13.46;100.00;102557.53;5032994;28;20033;-79
2022/10/18 01:50:47;;;;;;;29.25;20.10;;;;;;;13.20;100.00;102512.06;5032674;28;20032;-79
2022/10/18 01:53:30;;;;;;;28.90;19.25;;;;;;;13.46;100.00;102557.53;5032971;28;20030;-79
2022/10/18 01:56:17;;;;;;;35.97;23.10;;;;;;;13.49;100.00;102557.41;5032739;28;20266;-79
2022/10/18 01:59:01;;;;;;;34.03;20.83;;;;;;;13.48;100.00;102563.50;5032976;28;20171;-79
2022/10/18 02:02:01;;;;;;;35.95;21.35;;;;;;;13.46;100.00;102565.31;5032567;28;20469;-74
2022/10/18 02:04:49;;;;;;;41.10;21.58;;;;;;;13.38;100.00;102557.06;5032684;28;20041;-74
2022/10/18 02:07:52;;;;;;;30.52;20.58;;;;;;;13.43;100.00;102569.81;5032854;28;20030;-79
2022/10/18 02:10:25;;;;;;;32.40;20.33;;;;;;;13.35;100.00;102567.56;5036626;28;20034;-78
2022/10/18 02:12:52;;;;;;;35.28;20.38;;;;;;;13.34;100.00;102570.25;5036560;28;20052;-78
2022/10/18 02:15:22;;;;;;;35.40;20.77;;;;;;;13.28;100.00;102563.59;5018732;28;20053;-79
2022/10/18 02:17:49;;;;;;;35.58;20.70;;;;;;;13.26;100.00;102562.81;5036653;28;20104;-79
2022/10/18 02:20:19;;;;;;;31.52;18.40;;;;;;;13.19;100.00;102559.69;5036336;28;20032;-78
2022/10/18 02:22:47;;;;;;;30.27;19.83;;;;;;;13.16;100.00;102553.75;5036334;28;20053;-79
2022/10/18 02:25:19;;;;;;;29.35;19.70;;;;;;;13.11;100.00;102555.72;5036440;28;20025;-79
2022/10/18 02:27:44;;;;;;;;;;;;;;;13.15;100.00;102568.47;5036921;28;20029;-79
2022/10/18 02:30:11;;;;;;;33.78;19.20;;;;;;;13.06;100.00;102563.69;5036275;28;19909;-73
2022/10/18 02:32:39;;;;;;;33.60;21.63;;;;;;;13.06;100.00;102555.91;5036417;28;20022;-79
2022/10/18 02:35:16;;;;;;;38.20;20.27;;;;;;;13.03;100.00;102565.59;5036299;28;20025;-74
2022/10/18 02:37:44;;;;;;;40.42;23.05;;;;;;;13.04;100.00;102562.94;5036144;28;20104;-76
2022/10/18 02:40:10;;;;;;;39.33;23.45;;;;;;;12.97;100.00;102548.56;5035875;28;20025;-74
2022/10/18 02:42:40;;;;;;;39.85;23.35;;;;;;;13.04;100.00;102564.69;5036107;28;20355;-75
2022/10/18 02:45:06;;;;;;;50.20;25.08;;;;;;;13.07;100.00;102567.97;5035876;28;20025;-74
2022/10/18 02:47:31;;;;;;;43.20;25.85;;;;;;;13.10;100.00;102567.84;5091467;22;20049;-79
2022/10/18 02:49:57;;;;;;;43.00;26.25;;;;;;;13.15;100.00;102571.06;5036033;28;20041;-73
2022/10/18 02:52:22;;;;;;;57.72;26.20;;;;;;;13.09;100.00;102558.38;5035662;28;20124;-75
2022/10/18 02:54:47;;;;;;;47.58;26.10;;;;;;;13.14;100.00;102563.34;5017556;28;20048;-75
2022/10/18 02:57:13;;;;;;;48.33;26.15;;;;;;;13.20;100.00;102563.94;5035936;28;20029;-73
2022/10/18 02:59:38;;;;;;;45.92;24.30;;;;;;;13.06;100.00;102545.53;5017565;28;20071;-75
2022/10/18 03:02:03;;;;;;;54.15;28.20;;;;;;;13.20;100.00;102556.16;5035933;28;20083;-74
2022/10/18 03:04:29;;;;;;;47.53;25.38;;;;;;;13.29;100.00;102573.06;5035741;28;20064;-74
2022/10/18 03:06:54;;;;;;;55.25;26.80;;;;;;;13.26;100.00;102570.59;5035641;28;20108;-73
2022/10/18 03:09:19;;;;;;;47.03;24.05;;;;;;;13.24;100.00;102574.19;5035369;28;20033;-74
2022/10/18 03:11:45;;;;;;;50.05;27.02;;;;;;;13.23;100.00;102578.53;5035766;28;20029;-74
2022/10/18 03:14:10;;;;;;;56.42;29.17;;;;;;;13.29;100.00;102580.00;5035724;28;20477;-74
2022/10/18 03:16:35;;;;;;;55.15;29.05;;;;;;;13.19;100.00;102562.28;5035488;28;20045;-74
2022/10/18 03:19:01;;;;;;;59.30;29.48;;;;;;;13.32;100.00;102583.28;5017683;28;20056;-74
2022/10/18 03:21:26;;;;;;;53.75;30.33;;;;;;;13.35;100.00;102577.09;5035269;28;20477;-74
2022/10/18 03:23:51;;;;;;;55.67;29.20;;;;;;;13.33;100.00;102576.34;5035125;28;20460;-74
2022/10/18 03:26:16;;;;;;;56.40;29.73;;;;;;;13.18;100.00;102547.59;5035157;28;20037;-74
2022/10/18 03:28:42;;;;;;;47.83;28.48;;;;;;;13.31;100.00;102579.03;5035308;28;20026;-74
2022/10/18 03:31:07;;;;;;;62.08;34.17;;;;;;;13.30;100.00;102569.56;5035413;28;20064;-74
2022/10/18 03:33:32;;;;;;;62.40;34.75;;;;;;;13.28;100.00;102570.53;5035219;28;20052;-74
2022/10/18 03:35:58;;;;;;;67.20;32.58;;;;;;;13.31;100.00;102584.22;5035190;28;20097;-74
2022/10/18 03:38:23;;;;;;;59.70;33.70;;;;;;;13.20;100.00;102557.94;5017104;28;20489;-74
2022/10/18 03:40:49;;;;;;;61.67;32.85;;;;;;;13.30;100.00;102576.50;5017125;28;20045;-73
2022/10/18 03:43:14;;;;;;;69.40;36.38;;;;;;;13.24;100.00;102577.59;5035007;28;20033;-74
2022/10/18 03:45:40;;;;;;;76.85;37.58;;;;;;;13.23;100.00;102575.94;5034992;28;20041;-74
2022/10/18 03:48:05;;;;;;;75.72;39.00;;;;;;;13.26;100.00;102567.16;5017114;28;20099;-74
2022/10/18 03:50:30;;;;;;;79.78;39.95;;;;;;;13.29;100.00;102574.81;5034973;28;20120;-73
2022/10/18 03:52:56;;;;;;;64.47;34.00;;;;;;;13.19;100.00;102566.63;5034714;28;20174;-74
2022/10/18 03:55:21;;;;;;;65.85;35.47;;;;;;;13.15;100.00;102559.84;5034698;28;20024;-74
2022/10/18 03:57:47;;;;;;;54.97;32.45;;;;;;;13.18;100.00;102576.13;5034632;28;20029;-74
2022/10/18 04:00:12;;;;;;;64.88;34.47;;;;;;;13.12;100.00;102558.25;5034557;28;20079;-73
2022/10/18 04:02:38;;;;;;;69.38;36.50;;;;;;;13.18;100.00;102560.56;5034669;28;20033;-74
2022/10/18 04:05:04;;;;;;;68.35;33.30;;;;;;;13.14;100.00;102564.19;5034730;28;20112;-74
2022/10/18 04:07:29;;;;;;;60.63;33.97;;;;;;;13.14;100.00;102560.75;5034308;28;20032;-73
2022/10/18 04:09:54;;;;;;;64.47;34.28;;;;;;;13.10;100.00;102562.66;5034382;28;20035;-74
2022/10/18 04:12:19;;;;;;;70.80;35.17;;;;;;;13.14;100.00;102564.19;5034184;28;20028;-75
2022/10/18 04:14:45;;;;;;;72.40;37.03;;;;;;;13.09;100.00;102549.78;5034443;28;20028;-74
2022/10/18 04:17:10;;;;;;;67.68;36.55;;;;;;;13.15;100.00;102562.44;5034436;28;20105;-74
2022/10/18 04:19:35;;;;;;;82.00;41.70;;;;;;;13.19;100.00;102566.63;5034416;28;20029;-74
2022/10/18 04:22:01;;;;;;;78.40;38.70;;;;;;;13.09;100.00;102555.78;5034191;28;20075;-74
2022/10/18 04:24:26;;;;;;;83.38;39.65;;;;;;;13.16;100.00;102566.72;5034079;28;20075;-74
2022/10/18 04:26:51;;;;;;;89.90;39.92;;;;;;;13.21;100.00;102569.97;5034196;28;20032;-74
2022/10/18 04:29:17;;;;;;;97.20;40.17;;;;;;;13.24;100.00;102576.78;5034035;28;20030;-74
2022/10/18 04:31:42;;;;;;;110.88;42.78;;;;;;;13.26;100.00;102585.31;5033537;28;20128;-74
2022/10/18 04:34:08;;;;;;;110.82;44.97;;;;;;;13.24;100.00;102585.41;5034059;28;20026;-73
2022/10/18 04:36:34;;;;;;;84.80;40.33;;;;;;;13.24;100.00;102584.56;5033715;28;20025;-74
2022/10/18 04:38:59;;;;;;;108.35;42.88;;;;;;;13.10;100.00;102564.41;5033782;28;20033;-74
2022/10/18 04:41:24;;;;;;;88.00;41.28;;;;;;;13.19;100.00;102575.25;5033846;28;20025;-76
2022/10/18 04:43:49;;;;;;;92.05;41.00;;;;;;;13.07;100.00;102570.56;5033589;28;20033;-74
2022/10/18 04:46:15;;;;;;;87.55;41.90;;;;;;;13.17;100.00;102597.78;5015630;28;20076;-75
2022/10/18 04:48:40;;;;;;;96.20;40.97;;;;;;;13.09;100.00;102570.53;5033581;28;20041;-76
2022/10/18 04:51:05;;;;;;;103.05;42.55;;;;;;;13.08;100.00;102571.44;5015118;28;20452;-75
2022/10/18 04:53:31;;;;;;;88.80;42.00;;;;;;;13.14;100.00;102577.16;5033616;28;20032;-74
2022/10/18 04:55:57;;;;;;;99.75;41.58;;;;;;;13.15;100.00;102571.06;5033503;28;20041;-74
2022/10/18 04:58:22;;;;;;;93.80;42.40;;;;;;;13.14;100.00;102579.75;5033682;28;20063;-74
2022/10/18 05:00:48;;;;;;;98.90;40.88;;;;;;;13.10;100.00;102579.97;5033394;28;20033;-76
2022/10/18 05:03:14;;;;;;;129.07;42.95;;;;;;;13.10;100.00;102585.16;5033655;28;20053;-76
2022/10/18 05:05:40;;;;;;;117.50;41.40;;;;;;;13.05;100.00;102576.75;5033454;28;20100;-75
2022/10/18 05:08:05;;;;;;;124.47;41.80;;;;;;;13.03;100.00;102584.59;5033472;28;20025;-74
2022/10/18 05:10:31;;;;;;;107.40;42.80;;;;;;;13.06;100.00;102593.97;5033241;28;20057;-73
2022/10/18 05:12:56;;;;;;;116.35;42.08;;;;;;;12.99;100.00;102595.19;5033337;28;20025;-75
2022/10/18 05:15:22;;;;;;;107.03;40.75;;;;;;;12.98;100.00;102596.94;5033246;28;20029;-74
2022/10/18 05:17:47;;;;;;;108.13;40.15;;;;;;;12.97;100.00;102596.97;5033380;28;20072;-74
2022/10/18 05:20:13;;;;;;;104.72;40.58;;;;;;;12.99;100.00;102597.78;5033184;28;20493;-74
2022/10/18 05:22:38;;;;;;;119.55;41.70;;;;;;;12.89;100.00;102584.38;5033271;28;20096;-74
2022/10/18 05:25:04;;;;;;;90.43;39.40;;;;;;;12.67;100.00;102561.13;5033132;28;20097;-74
2022/10/18 05:27:29;;;;;;;97.82;38.42;;;;;;;12.79;100.00;102590.88;5033229;28;20052;-74
2022/10/18 05:29:54;;;;;;;106.72;39.55;;;;;;;12.67;100.00;102570.66;5033250;28;20042;-74
2022/10/18 05:32:20;;;;;;;96.75;38.13;;;;;;;12.82;100.00;102609.72;5032910;28;20033;-75
2022/10/18 05:34:45;;;;;;;78.50;37.65;;;;;;;12.82;100.00;102611.50;5033244;28;20530;-74
2022/10/18 05:37:10;;;;;;;111.43;38.88;;;;;;;12.77;100.00;102606.47;5033261;28;20025;-74
2022/10/18 05:39:37;;;;;;;94.47;39.55;;;;;;;12.63;100.00;102598.47;5032857;28;20385;-74
2022/10/18 05:42:02;;;;;;;93.00;39.20;;;;;;;12.70;100.00;102620.66;5033052;28;20034;-74
2022/10/18 05:44:28;;;;;;;126.45;41.78;;;;;;;12.66;100.00;102624.25;5035709;28;20028;-73
2022/10/18 05:46:53;;;;;;;83.25;38.08;;;;;;;12.68;100.00;102612.06;5036670;28;20513;-73
2022/10/18 05:49:18;;;;;;;83.38;38.63;;;;;;;12.63;100.00;102614.03;5037049;28;20124;-73
2022/10/18 05:51:45;;;;;;;94.93;40.28;;;;;;;12.43;100.00;102588.97;5037129;28;20026;-74
2022/10/18 05:54:11;;;;;;;103.70;39.70;;;;;;;12.55;100.00;102613.50;5036994;28;20025;-74
2022/10/18 05:56:37;;;;;;;106.30;40.35;;;;;;;12.50;100.00;102610.28;5036982;28;20409;-74
2022/10/18 05:59:06;;;;;;;128.35;39.92;;;;;;;12.47;100.00;102605.22;5036995;28;20164;-74
2022/10/18 06:01:31;;;;;;;100.10;39.15;;;;;;;12.51;100.00;102617.16;5036617;28;20476;-74
2022/10/18 06:03:57;;;;;;;119.43;39.90;;;;;;;12.52;100.00;102618.84;5019052;28;20030;-79
2022/10/18 06:06:22;;;;;;;114.13;39.47;;;;;;;12.47;100.00;102613.00;5036135;28;20038;-79
2022/10/18 06:08:48;;;;;;;108.72;38.95;;;;;;;12.38;100.00;102615.97;5036974;28;20061;-79
2022/10/18 06:11:18;;;;;;;102.45;38.00;;;;;;;12.41;100.00;102624.47;5036619;28;20033;-79
2022/10/18 06:13:45;;;;;;;128.63;40.08;;;;;;;12.28;100.00;102600.81;5036597;28;20056;-78
2022/10/18 06:16:13;;;;;;;95.40;37.00;;;;;;;12.37;100.00;102614.28;5036753;28;20362;-77
2022/10/18 06:18:39;;;;;;;86.63;37.28;;;;;;;12.34;100.00;102621.28;5036670;28;20428;-77
2022/10/18 06:21:04;;;;;;;100.85;37.33;;;;;;;12.25;100.00;102613.91;5018676;28;20370;-80
2022/10/18 06:23:30;;;;;;;76.28;37.15;;;;;;;12.15;100.00;102601.41;5036606;28;20104;-79
2022/10/18 06:26:03;;;;;;;77.35;37.90;;;;;;;12.30;100.00;102634.44;5036278;28;20493;-79
2022/10/18 06:28:29;;;;;;;70.95;35.65;;;;;;;12.14;100.00;102605.72;5036239;28;20044;-79
2022/10/18 06:30:55;;;;;;;77.72;35.58;;;;;;;12.25;100.00;102639.81;5036232;28;20033;-77
2022/10/18 06:33:20;;;;;;;90.80;36.50;;;;;;;12.21;100.00;102646.03;5036311;28;20022;-78
2022/10/18 06:35:56;;;;;;;78.97;35.00;;;;;;;12.21;100.00;102643.44;5036306;28;20128;-79
2022/10/18 06:38:21;;;;;;;72.38;34.83;;;;;;;12.21;100.00;102646.03;5036316;28;20070;-76
2022/10/18 06:40:47;;;;;;;87.63;37.42;;;;;;;12.18;100.00;102651.31;5036184;28;20407;-77
2022/10/18 06:43:13;;;;;;;72.03;35.03;;;;;;;12.20;100.00;102659.03;5036044;28;20313;-80
2022/10/18 06:45:38;;;;;;;71.28;35.97;;;;;;;12.25;100.00;102670.03;5035734;28;20057;-78
2022/10/18 06:48:04;;;;;;;79.65;36.08;;;;;;;12.25;100.00;102667.44;5035684;28;20046;-76
2022/10/18 06:50:29;;;;;;;76.25;36.83;;;;;;;12.29;100.00;102674.19;5035835;28;20032;-78
2022/10/18 06:52:54;;;;;;;92.38;37.80;;;;;;;12.28;100.00;102683.69;5036022;28;20029;-71
2022/10/18 06:55:19;;;;;;;81.45;36.10;;;;;;;12.29;100.00;102675.06;5035371;28;20022;-78
2022/10/18 06:57:45;;;;;;;113.50;37.22;;;;;;;12.34;100.00;102674.84;5035613;28;20037;-75
2022/10/18 07:00:11;;;;;;;81.65;35.53;;;;;;;12.37;100.00;102666.94;5035818;28;20048;-76
2022/10/18 07:02:40;;;;;;;74.15;34.28;;;;;;;12.42;100.00;102690.94;5035593;28;20056;-79
2022/10/18 07:05:08;;;;;;;76.75;34.88;;;;;;;12.46;100.00;102699.41;5035719;28;20017;-77
2022/10/18 07:07:34;;;;;;;77.65;36.08;;;;;;;12.52;100.00;102696.56;5035804;28;20501;-77
2022/10/18 07:10:03;;;;;;;95.40;36.45;;;;;;;12.52;100.00;102683.63;5035620;28;20052;-78
2022/10/18 07:12:29;;;;;;;89.22;36.88;;;;;;;12.67;100.00;102693.34;5035637;28;20021;-76
2022/10/18 07:14:54;;;;;;;84.70;35.90;;;;;;;12.76;100.00;102699.88;5035439;28;20480;-77
2022/10/18 07:17:19;;;;;;;99.78;34.78;;;;;;;12.78;100.00;102709.31;5035407;28;20025;-78
2022/10/18 07:19:45;;;;;;;68.30;34.88;;;;;;;12.88;100.00;102705.41;5035420;28;20112;-76
2022/10/18 07:22:10;;;;;;;122.78;36.75;;;;;;;12.82;100.00;102694.44;5035290;28;20026;-80
2022/10/18 07:24:35;;;;;;;121.00;38.38;;;;;;;12.95;100.00;102702.53;5017117;28;20025;-79
2022/10/18 07:27:01;;;;;;;125.90;42.70;;;;;;;12.97;100.00;102708.50;5035082;28;20527;-79
2022/10/18 07:29:26;;;;;;;84.68;45.83;;;;;;;12.94;100.00;102709.47;5035339;28;20108;-79
2022/10/18 07:31:51;;;;;;;92.05;42.03;;;;;;;13.05;100.00;102729.75;5035111;28;20034;-81
2022/10/18 07:34:16;;;;;;;79.20;40.70;;;;;;;12.91;100.00;102704.44;5035089;28;20049;-80
2022/10/18 07:36:42;;;;;;;79.85;38.03;;;;;;;12.92;100.00;102717.31;5035116;28;20111;-80
2022/10/18 07:39:08;;;;;;;71.93;37.53;;;;;;;13.03;100.00;102740.19;5034939;28;20104;-79
2022/10/18 07:41:33;;;;;;;59.95;35.97;;;;;;;12.98;100.00;102731.78;5034853;28;20068;-80
2022/10/18 07:44:00;;;;;;;69.07;36.65;;;;;;;13.13;100.00;102751.03;5035000;28;20033;-79
2022/10/18 07:46:25;;;;;;;58.95;34.70;;;;;;;13.10;100.00;102739.03;5034828;28;20025;-80
2022/10/18 07:48:51;;;;;;;50.78;32.58;;;;;;;13.29;100.00;102761.63;5034934;28;20049;-80
2022/10/18 07:51:18;;;;;;;49.05;29.02;;;;;;;13.32;100.00;102762.31;5034913;28;20061;-80
2022/10/18 07:53:44;;;;;;;50.08;25.75;;;;;;;13.32;100.00;102764.09;5034666;28;20035;-80
2022/10/18 07:56:15;;;;;;;53.42;25.67;;;;;;;13.22;100.00;102747.22;5034749;28;20025;-79
2022/10/18 07:58:44;;;;;;;49.95;26.55;;;;;;;13.37;100.00;102775.09;5034554;28;20025;-80
2022/10/18 08:01:10;;;;;;;55.22;26.33;;;;;;;13.43;100.00;102780.88;5034509;28;20114;-80
2022/10/18 08:03:36;;;;;;;49.50;26.52;;;;;;;13.49;100.00;102783.19;5034583;28;20120;-80
2022/10/18 08:06:03;;;;;;;49.85;25.27;;;;;;;13.55;100.00;102786.41;5033753;28;20025;-80
2022/10/18 08:08:28;;;;;;;53.92;26.48;;;;;;;13.48;100.00;102758.16;5034677;28;20393;-80
2022/10/18 08:10:54;;;;;;;50.17;24.80;;;;;;;13.69;100.00;102784.91;5034417;28;20029;-80
2022/10/18 08:13:20;;;;;;;48.60;24.92;;;;;;;13.71;100.00;102792.63;5034247;28;20481;-80
2022/10/18 08:15:46;;;;;;;53.22;27.00;;;;;;;13.72;100.00;102796.91;5034396;28;20026;-80
2022/10/18 08:18:11;;;;;;;53.53;25.73;;;;;;;13.60;100.00;102777.53;5034092;28;20048;-80
2022/10/18 08:20:42;;;;;;;47.05;25.38;;;;;;;13.77;100.00;102803.59;5033995;28;20401;-79
2022/10/18 08:23:07;;;;;;;56.08;27.75;;;;;;;13.78;100.00;102786.25;5034188;28;20113;-80
2022/10/18 08:25:33;;;;;;;54.70;26.92;;;;;;;13.74;100.00;102771.72;5034149;28;20104;-79
2022/10/18 08:28:00;;;;;;;54.42;28.65;;;;;;;13.94;100.00;102791.56;5033773;28;20426;-79
2022/10/18 08:30:25;;;;;;;54.00;27.17;;;;;;;13.99;100.00;102800.00;5034173;28;20021;-80
2022/10/18 08:32:50;;;;;;;59.08;28.67;;;;;;;13.96;100.00;102800.13;5033862;28;20355;-80
2022/10/18 08:35:16;;;;;;;49.85;25.88;;;;;;;13.92;100.00;102806.41;5033993;28;20040;-79
2022/10/18 08:37:41;;;;;;;57.67;26.90;;;;;;;13.85;100.00;102816.22;5016608;28;20033;-79
2022/10/18 08:40:09;;;;;;;55.58;27.08;;;;;;;13.82;100.00;102818.09;5033828;28;20030;-80
2022/10/18 08:42:43;;;;;;;56.67;27.20;;;;;;;13.77;100.00;102811.38;5033812;28;20473;-80
2022/10/18 08:45:11;;;;;;;46.85;26.33;;;;;;;13.68;100.00;102808.34;5033792;28;20432;-80
2022/10/18 08:47:42;;;;;;;52.58;26.75;;;;;;;13.68;100.00;102798.81;5033574;28;20046;-80
2022/10/18 08:50:18;;;;;;;53.40;25.52;;;;;;;13.71;100.00;102818.59;5033581;28;20108;-78
2022/10/18 08:53:00;;;;;;;46.10;24.60;;;;;;;13.31;100.00;102776.22;5033788;28;20116;-78
2022/10/18 08:55:37;;;;;;;46.95;24.23;;;;;;;13.56;100.00;102816.66;5015912;28;20064;-80
2022/10/18 08:58:12;;;;;;;47.80;23.67;;;;;;;13.48;100.00;102810.06;5033322;28;20104;-80
2022/10/18 09:00:42;;;;;;;51.38;22.70;;;;;;;13.25;100.00;102784.25;5033597;28;20104;-79
2022/10/18 09:03:26;;;;;;;46.00;23.10;;;;;;;13.41;100.00;102816.44;5015975;28;20435;-79
2022/10/18 09:06:12;;;;;;;46.95;22.75;;;;;;;13.38;100.00;102820.91;5033529;28;20084;-81
2022/10/18 09:09:21;;;;;;;50.47;23.77;;;;;;;13.38;100.00;102823.50;5033372;28;20033;-80
2022/10/18 09:12:01;;;;;;;49.75;22.80;;;;;;;13.35;100.00;102816.69;4972373;28;20043;-78
2022/10/18 09:14:28;;;;;;;48.35;24.25;;;;;;;13.40;100.00;102830.31;4956350;28;20031;-80
2022/10/18 09:17:22;;;;;;;49.55;24.77;;;;;;;13.17;100.00;102791.47;4972172;28;20049;-79
2022/10/18 09:20:10;;;;;;;55.83;24.58;;;;;;;13.45;100.00;102827.50;4972283;28;20113;-81
2022/10/18 09:22:50;;;;;;;48.15;23.55;;;;;;;13.41;100.00;102824.22;4972620;28;20039;-80
2022/10/18 09:25:35;;;;;;;48.38;23.10;;;;;;;13.36;100.00;102820.97;4956172;28;20100;-79
2022/10/18 09:28:12;;;;;;;45.97;22.27;;;;;;;13.39;100.00;102831.22;4972319;28;20077;-77
2022/10/18 09:31:04;;;;;;;52.08;24.02;;;;;;;13.40;100.00;102827.72;4972026;28;20386;-80
2022/10/18 09:33:38;;;;;;;55.08;24.35;;;;;;;13.47;100.00;102820.53;4972628;28;20034;-77
2022/10/18 09:36:07;;;;;;;53.40;24.88;;;;;;;13.47;100.00;102817.94;4972325;28;20483;-77
2022/10/18 09:38:48;;;;;;;49.05;24.60;;;;;;;13.47;100.00;102818.78;4972410;28;20074;-77
2022/10/18 09:41:35;;;;;;;45.95;22.23;;;;;;;13.55;100.00;102827.94;4972191;28;20117;-77
2022/10/18 09:44:11;;;;;;;47.47;23.02;;;;;;;13.50;100.00;102807.41;4972300;28;20454;-77
2022/10/18 09:46:42;;;;;;;54.03;23.42;;;;;;;13.61;100.00;102827.69;4955656;28;20035;-76
2022/10/18 09:49:50;;;;;;;53.70;25.30;;;;;;;13.69;100.00;102828.22;5018718;28;20469;-77
2022/10/18 09:52:24;;;;;;;45.13;22.38;;;;;;;13.65;100.00;102832.69;5015350;28;20107;-81
2022/10/18 09:54:59;;;;;;;40.90;21.38;;;;;;;13.61;100.00;102819.91;5032970;28;20029;-77
2022/10/18 09:57:42;;;;;;;41.05;20.42;;;;;;;13.53;100.00;102802.06;5032915;28;20029;-77
2022/10/18 10:00:19;;;;;;;52.15;22.27;;;;;;;13.61;100.00;102814.72;5032673;28;20075;-77
2022/10/18 10:02:45;;;;;;;42.58;19.35;;;;;;;13.53;100.00;102801.22;5032944;28;20029;-78
2022/10/18 10:05:14;;;;;;;47.70;21.17;;;;;;;13.58;100.00;102809.66;5015253;28;20032;-77
2022/10/18 10:07:46;;;;;;;39.72;18.83;;;;;;;13.49;100.00;102793.59;5032741;28;20033;-76
2022/10/18 10:10:26;;;;;;;42.90;15.98;;;;;;;13.74;100.00;102834.03;5032845;28;20021;-77
2022/10/18 10:13:21;;;;;;;36.95;15.02;;;;;;;13.80;100.00;102835.53;5032545;28;20527;-77
2022/10/18 10:16:00;;;;;;;31.38;13.32;;;;;;;13.79;100.00;102832.09;5015105;28;20558;-76
2022/10/18 10:18:37;;;;;;;30.52;13.88;;;;;;;13.78;100.00;102828.63;5032954;28;20033;-77
2022/10/18 10:21:12;;;;;;;30.80;14.25;;;;;;;13.68;100.00;102803.16;5032694;28;20040;-77
2022/10/18 10:23:49;;;;;;;29.73;13.05;;;;;;;13.82;100.00;102829.34;5032545;28;20033;-79
2022/10/18 10:26:31;;;;;;;30.45;13.82;;;;;;;13.98;100.00;102847.69;5032373;28;20083;-77
2022/10/18 10:28:56;;;;;;;;;;;;;;;14.04;100.00;102852.59;5032930;28;20026;-77
2022/10/18 10:31:32;;;;;;;38.45;14.20;;;;;;;13.93;100.00;102826.25;5036051;28;20004;-76
2022/10/18 10:33:58;;;;;;;31.25;12.73;;;;;;;14.04;100.00;102843.03;5036295;28;20024;-77
2022/10/18 10:36:23;;;;;;;26.45;10.65;;;;;;;14.08;99.57;102851.56;5036163;28;20525;-77
2022/10/18 10:39:17;;;;;;;22.85;8.13;;;;;;;14.18;100.00;102857.16;5036152;28;20109;-77
2022/10/18 10:41:47;;;;;;;21.88;7.43;;;;;;;14.28;100.00;102868.84;5035782;28;20104;-77
2022/10/18 10:44:15;;;;;;;21.55;8.73;;;;;;;14.33;95.25;102866.84;5036116;28;20022;-80
2022/10/18 10:46:40;;;;;;;32.78;9.57;;;;;;;14.27;97.69;102851.56;5035733;28;20033;-80
2022/10/18 10:49:18;;;;;;;29.20;9.77;;;;;;;14.23;97.28;102843.03;5036007;28;20041;-81
2022/10/18 10:51:45;;;;;;;24.17;9.13;;;;;;;14.46;95.90;102865.41;5036617;28;20057;-81
2022/10/18 10:54:23;;;;;;;27.42;9.98;;;;;;;14.48;97.32;102860.13;5036045;28;20476;-81
2022/10/18 10:56:59;;;;;;;23.77;8.88;;;;;;;14.53;97.09;102860.75;5035850;28;20025;-81
2022/10/18 10:59:29;;;;;;;23.75;9.25;;;;;;;14.49;96.45;102856.63;5035802;28;20028;-79
2022/10/18 11:02:12;;;;;;;22.83;7.75;;;;;;;14.62;96.20;102868.94;5035586;28;20064;-81
2022/10/18 11:04:39;;;;;;;24.63;8.05;;;;;;;14.61;93.55;102866.44;5035675;28;20032;-84
2022/10/18 11:07:07;;;;;;;22.60;6.63;;;;;;;14.64;89.80;102874.06;5035219;28;20073;-82
2022/10/18 11:09:44;;;;;;;22.75;7.32;;;;;;;14.61;88.79;102867.28;5035275;28;20029;-82
2022/10/18 11:12:19;;;;;;;25.08;6.35;;;;;;;14.73;86.95;102875.41;5017389;28;20231;-81